sensor_id;sensor_type;location;lat;lon;timestamp;P1;durP1;ratioP1;P2;durP2;ratioP2
67227;SDS011;54139;42.616;23.748;2023-09-19T00:02:18;7.85;;;7.20;;
67227;SDS011;54139;42.616;23.748;2023-09-19T00:04:43;7.38;;;6.68;;
67227;SDS011;54139;42.616;23.748;2023-09-19T00:07:09;9.68;;;7.22;;
67227;SDS011;54139;42.616;23.748;2023-09-19T00:09:35;6.65;;;5.95;;
67227;SDS011;54139;42.616;23.748;2023-09-19T00:12:06;9.00;;;6.60;;
67227;SDS011;54139;42.616;23.748;2023-09-19T00:14:34;8.00;;;6.18;;
67227;SDS011;54139;42.616;23.748;2023-09-19T00:17:00;6.05;;;5.45;;
67227;SDS011;54139;42.616;23.748;2023-09-19T00:19:31;10.40;;;5.20;;
67227;SDS011;54139;42.616;23.748;2023-09-19T00:21:57;6.05;;;5.53;;
67227;SDS011;54139;42.616;23.748;2023-09-19T00:24:23;6.72;;;5.97;;
67227;SDS011;54139;42.616;23.748;2023-09-19T00:26:48;7.50;;;6.00;;
67227;SDS011;54139;42.616;23.748;2023-09-19T00:29:14;7.43;;;6.70;;
67227;SDS011;54139;42.616;23.748;2023-09-19T00:31:43;6.63;;;5.93;;
67227;SDS011;54139;42.616;23.748;2023-09-19T00:36:44;7.82;;;6.95;;
67227;SDS011;54139;42.616;23.748;2023-09-19T00:39:10;7.30;;;6.78;;
67227;SDS011;54139;42.616;23.748;2023-09-19T00:41:35;8.90;;;7.95;;
67227;SDS011;54139;42.616;23.748;2023-09-19T00:44:02;8.38;;;7.53;;
67227;SDS011;54139;42.616;23.748;2023-09-19T00:46:29;7.38;;;6.78;;
67227;SDS011;54139;42.616;23.748;2023-09-19T00:48:54;10.98;;;8.38;;
67227;SDS011;54139;42.616;23.748;2023-09-19T00:51:22;10.15;;;7.65;;
67227;SDS011;54139;42.616;23.748;2023-09-19T00:53:47;8.48;;;7.70;;
67227;SDS011;54139;42.616;23.748;2023-09-19T00:56:14;9.40;;;8.48;;
67227;SDS011;54139;42.616;23.748;2023-09-19T00:58:43;10.52;;;8.88;;
67227;SDS011;54139;42.616;23.748;2023-09-19T01:01:09;9.90;;;8.40;;
67227;SDS011;54139;42.616;23.748;2023-09-19T01:03:36;10.13;;;9.27;;
67227;SDS011;54139;42.616;23.748;2023-09-19T01:06:02;9.98;;;8.95;;
67227;SDS011;54139;42.616;23.748;2023-09-19T01:08:28;10.93;;;9.75;;
67227;SDS011;54139;42.616;23.748;2023-09-19T01:11:05;8.50;;;7.88;;
67227;SDS011;54139;42.616;23.748;2023-09-19T01:16:38;8.73;;;8.02;;
67227;SDS011;54139;42.616;23.748;2023-09-19T01:31:59;12.07;;;9.15;;
67227;SDS011;54139;42.616;23.748;2023-09-19T01:34:43;8.07;;;7.38;;
67227;SDS011;54139;42.616;23.748;2023-09-19T01:37:10;8.85;;;7.95;;
67227;SDS011;54139;42.616;23.748;2023-09-19T01:39:36;8.10;;;7.43;;
67227;SDS011;54139;42.616;23.748;2023-09-19T01:44:38;7.50;;;6.88;;
67227;SDS011;54139;42.616;23.748;2023-09-19T01:47:13;6.68;;;6.07;;
67227;SDS011;54139;42.616;23.748;2023-09-19T01:49:45;7.35;;;6.68;;
67227;SDS011;54139;42.616;23.748;2023-09-19T01:52:20;6.70;;;6.10;;
67227;SDS011;54139;42.616;23.748;2023-09-19T01:54:48;7.30;;;6.80;;
67227;SDS011;54139;42.616;23.748;2023-09-19T01:57:32;8.32;;;7.72;;
67227;SDS011;54139;42.616;23.748;2023-09-19T02:00:02;7.93;;;7.32;;
67227;SDS011;54139;42.616;23.748;2023-09-19T02:02:37;10.43;;;9.52;;
67227;SDS011;54139;42.616;23.748;2023-09-19T02:05:04;9.15;;;8.10;;
67227;SDS011;54139;42.616;23.748;2023-09-19T02:07:30;7.50;;;6.82;;
67227;SDS011;54139;42.616;23.748;2023-09-19T02:10:00;7.45;;;6.93;;
67227;SDS011;54139;42.616;23.748;2023-09-19T02:12:26;8.60;;;7.65;;
67227;SDS011;54139;42.616;23.748;2023-09-19T02:14:52;7.72;;;6.93;;
67227;SDS011;54139;42.616;23.748;2023-09-19T02:17:18;8.10;;;7.47;;
67227;SDS011;54139;42.616;23.748;2023-09-19T02:19:44;7.63;;;6.88;;
67227;SDS011;54139;42.616;23.748;2023-09-19T02:22:09;8.15;;;7.35;;
67227;SDS011;54139;42.616;23.748;2023-09-19T02:24:36;7.90;;;7.25;;
67227;SDS011;54139;42.616;23.748;2023-09-19T02:27:04;7.80;;;7.20;;
67227;SDS011;54139;42.616;23.748;2023-09-19T02:29:30;9.70;;;7.75;;
67227;SDS011;54139;42.616;23.748;2023-09-19T02:31:56;7.53;;;7.00;;
67227;SDS011;54139;42.616;23.748;2023-09-19T02:34:21;8.38;;;7.68;;
67227;SDS011;54139;42.616;23.748;2023-09-19T02:36:47;8.75;;;7.85;;
67227;SDS011;54139;42.616;23.748;2023-09-19T02:39:13;8.30;;;7.53;;
67227;SDS011;54139;42.616;23.748;2023-09-19T02:41:38;8.52;;;7.72;;
67227;SDS011;54139;42.616;23.748;2023-09-19T02:44:04;9.13;;;8.25;;
67227;SDS011;54139;42.616;23.748;2023-09-19T02:46:33;10.32;;;8.20;;
67227;SDS011;54139;42.616;23.748;2023-09-19T02:48:58;8.27;;;7.57;;
67227;SDS011;54139;42.616;23.748;2023-09-19T02:51:24;8.35;;;7.63;;
67227;SDS011;54139;42.616;23.748;2023-09-19T02:53:50;8.95;;;8.05;;
67227;SDS011;54139;42.616;23.748;2023-09-19T02:56:17;9.90;;;9.00;;
67227;SDS011;54139;42.616;23.748;2023-09-19T02:58:43;11.35;;;10.52;;
67227;SDS011;54139;42.616;23.748;2023-09-19T03:01:12;12.15;;;10.98;;
67227;SDS011;54139;42.616;23.748;2023-09-19T03:03:37;11.57;;;10.60;;
67227;SDS011;54139;42.616;23.748;2023-09-19T03:06:05;9.85;;;9.05;;
67227;SDS011;54139;42.616;23.748;2023-09-19T03:08:31;11.35;;;10.40;;
67227;SDS011;54139;42.616;23.748;2023-09-19T03:13:36;10.10;;;7.93;;
67227;SDS011;54139;42.616;23.748;2023-09-19T03:16:03;8.65;;;7.95;;
67227;SDS011;54139;42.616;23.748;2023-09-19T03:18:31;9.70;;;8.80;;
67227;SDS011;54139;42.616;23.748;2023-09-19T03:20:59;9.23;;;8.52;;
67227;SDS011;54139;42.616;23.748;2023-09-19T03:23:28;9.07;;;8.38;;
67227;SDS011;54139;42.616;23.748;2023-09-19T03:25:54;8.98;;;8.07;;
67227;SDS011;54139;42.616;23.748;2023-09-19T03:28:21;9.10;;;8.30;;
67227;SDS011;54139;42.616;23.748;2023-09-19T03:30:57;7.95;;;7.35;;
67227;SDS011;54139;42.616;23.748;2023-09-19T03:43:37;12.27;;;8.00;;
67227;SDS011;54139;42.616;23.748;2023-09-19T03:46:02;8.20;;;7.60;;
67227;SDS011;54139;42.616;23.748;2023-09-19T03:48:32;7.63;;;7.03;;
67227;SDS011;54139;42.616;23.748;2023-09-19T03:50:58;9.18;;;7.88;;
67227;SDS011;54139;42.616;23.748;2023-09-19T03:53:24;8.15;;;7.55;;
67227;SDS011;54139;42.616;23.748;2023-09-19T03:55:49;9.25;;;8.45;;
67227;SDS011;54139;42.616;23.748;2023-09-19T03:58:15;8.85;;;8.05;;
67227;SDS011;54139;42.616;23.748;2023-09-19T04:03:15;11.57;;;8.90;;
67227;SDS011;54139;42.616;23.748;2023-09-19T04:05:45;10.50;;;9.68;;
67227;SDS011;54139;42.616;23.748;2023-09-19T04:08:12;9.65;;;8.77;;
67227;SDS011;54139;42.616;23.748;2023-09-19T04:10:39;9.10;;;8.40;;
67227;SDS011;54139;42.616;23.748;2023-09-19T04:13:06;11.95;;;7.90;;
67227;SDS011;54139;42.616;23.748;2023-09-19T04:15:32;10.05;;;8.57;;
67227;SDS011;54139;42.616;23.748;2023-09-19T04:17:58;9.52;;;8.73;;
67227;SDS011;54139;42.616;23.748;2023-09-19T04:20:23;9.00;;;8.23;;
67227;SDS011;54139;42.616;23.748;2023-09-19T04:22:48;9.13;;;8.32;;
67227;SDS011;54139;42.616;23.748;2023-09-19T04:25:14;8.25;;;7.43;;
67227;SDS011;54139;42.616;23.748;2023-09-19T04:27:39;8.40;;;7.60;;
67227;SDS011;54139;42.616;23.748;2023-09-19T04:30:07;8.95;;;7.10;;
67227;SDS011;54139;42.616;23.748;2023-09-19T04:32:37;7.80;;;7.10;;
67227;SDS011;54139;42.616;23.748;2023-09-19T04:35:07;7.40;;;6.78;;
67227;SDS011;54139;42.616;23.748;2023-09-19T04:37:43;8.02;;;7.22;;
67227;SDS011;54139;42.616;23.748;2023-09-19T04:40:08;8.82;;;6.50;;
67227;SDS011;54139;42.616;23.748;2023-09-19T04:42:38;8.38;;;7.63;;
67227;SDS011;54139;42.616;23.748;2023-09-19T04:45:07;7.93;;;7.30;;
67227;SDS011;54139;42.616;23.748;2023-09-19T04:47:34;12.35;;;6.70;;
67227;SDS011;54139;42.616;23.748;2023-09-19T04:50:00;8.38;;;7.53;;
67227;SDS011;54139;42.616;23.748;2023-09-19T04:52:26;9.27;;;8.48;;
67227;SDS011;54139;42.616;23.748;2023-09-19T04:54:51;7.88;;;7.00;;
67227;SDS011;54139;42.616;23.748;2023-09-19T04:57:17;9.63;;;8.57;;
67227;SDS011;54139;42.616;23.748;2023-09-19T04:59:43;9.43;;;8.38;;
67227;SDS011;54139;42.616;23.748;2023-09-19T05:02:08;9.07;;;6.85;;
67227;SDS011;54139;42.616;23.748;2023-09-19T05:04:33;8.27;;;7.35;;
67227;SDS011;54139;42.616;23.748;2023-09-19T05:06:59;10.65;;;8.02;;
67227;SDS011;54139;42.616;23.748;2023-09-19T05:09:26;10.23;;;7.65;;
67227;SDS011;54139;42.616;23.748;2023-09-19T05:11:51;8.57;;;7.18;;
67227;SDS011;54139;42.616;23.748;2023-09-19T05:14:17;6.38;;;5.93;;
67227;SDS011;54139;42.616;23.748;2023-09-19T05:16:44;7.82;;;6.50;;
67227;SDS011;54139;42.616;23.748;2023-09-19T05:19:09;6.97;;;6.30;;
67227;SDS011;54139;42.616;23.748;2023-09-19T05:21:36;7.20;;;5.70;;
67227;SDS011;54139;42.616;23.748;2023-09-19T05:24:04;6.63;;;5.93;;
67227;SDS011;54139;42.616;23.748;2023-09-19T05:26:31;6.35;;;5.38;;
67227;SDS011;54139;42.616;23.748;2023-09-19T05:28:57;6.20;;;5.70;;
67227;SDS011;54139;42.616;23.748;2023-09-19T05:31:22;8.30;;;7.60;;
67227;SDS011;54139;42.616;23.748;2023-09-19T05:33:49;8.48;;;7.68;;
67227;SDS011;54139;42.616;23.748;2023-09-19T05:36:15;6.78;;;6.22;;
67227;SDS011;54139;42.616;23.748;2023-09-19T05:38:41;7.82;;;5.55;;
67227;SDS011;54139;42.616;23.748;2023-09-19T05:41:07;5.18;;;4.60;;
67227;SDS011;54139;42.616;23.748;2023-09-19T05:43:35;5.45;;;5.00;;
67227;SDS011;54139;42.616;23.748;2023-09-19T05:46:02;5.10;;;4.60;;
67227;SDS011;54139;42.616;23.748;2023-09-19T05:48:28;6.18;;;5.25;;
67227;SDS011;54139;42.616;23.748;2023-09-19T05:50:53;6.47;;;4.40;;
67227;SDS011;54139;42.616;23.748;2023-09-19T05:53:19;4.95;;;4.53;;
67227;SDS011;54139;42.616;23.748;2023-09-19T05:55:45;4.15;;;3.85;;
67227;SDS011;54139;42.616;23.748;2023-09-19T05:58:11;4.13;;;3.80;;
67227;SDS011;54139;42.616;23.748;2023-09-19T06:00:39;3.83;;;3.45;;
67227;SDS011;54139;42.616;23.748;2023-09-19T06:03:06;4.22;;;3.10;;
67227;SDS011;54139;42.616;23.748;2023-09-19T06:05:33;6.25;;;3.95;;
67227;SDS011;54139;42.616;23.748;2023-09-19T06:07:58;3.47;;;3.17;;
67227;SDS011;54139;42.616;23.748;2023-09-19T06:10:32;5.55;;;3.00;;
67227;SDS011;54139;42.616;23.748;2023-09-19T06:12:59;3.00;;;2.80;;
67227;SDS011;54139;42.616;23.748;2023-09-19T06:15:25;3.33;;;3.13;;
67227;SDS011;54139;42.616;23.748;2023-09-19T06:17:55;2.95;;;2.65;;
67227;SDS011;54139;42.616;23.748;2023-09-19T06:20:21;3.50;;;3.00;;
67227;SDS011;54139;42.616;23.748;2023-09-19T06:22:48;3.00;;;2.65;;
67227;SDS011;54139;42.616;23.748;2023-09-19T06:25:15;2.95;;;2.75;;
67227;SDS011;54139;42.616;23.748;2023-09-19T06:27:53;2.92;;;2.70;;
67227;SDS011;54139;42.616;23.748;2023-09-19T06:30:20;2.90;;;2.70;;
67227;SDS011;54139;42.616;23.748;2023-09-19T06:32:46;4.13;;;2.63;;
67227;SDS011;54139;42.616;23.748;2023-09-19T06:35:12;3.30;;;3.10;;
67227;SDS011;54139;42.616;23.748;2023-09-19T06:37:39;4.13;;;3.30;;
67227;SDS011;54139;42.616;23.748;2023-09-19T06:40:09;3.42;;;3.00;;
67227;SDS011;54139;42.616;23.748;2023-09-19T06:42:39;5.82;;;3.20;;
67227;SDS011;54139;42.616;23.748;2023-09-19T06:45:18;2.88;;;2.67;;
67227;SDS011;54139;42.616;23.748;2023-09-19T06:47:44;2.88;;;2.67;;
67227;SDS011;54139;42.616;23.748;2023-09-19T06:50:10;4.75;;;3.17;;
67227;SDS011;54139;42.616;23.748;2023-09-19T06:52:42;3.80;;;2.88;;
67227;SDS011;54139;42.616;23.748;2023-09-19T06:55:07;3.42;;;3.13;;
67227;SDS011;54139;42.616;23.748;2023-09-19T06:57:35;3.45;;;3.15;;
67227;SDS011;54139;42.616;23.748;2023-09-19T07:00:00;3.75;;;3.45;;
67227;SDS011;54139;42.616;23.748;2023-09-19T07:02:26;4.35;;;3.10;;
67227;SDS011;54139;42.616;23.748;2023-09-19T07:04:52;3.95;;;3.55;;
67227;SDS011;54139;42.616;23.748;2023-09-19T07:07:17;3.92;;;3.38;;
67227;SDS011;54139;42.616;23.748;2023-09-19T07:09:43;3.97;;;3.65;;
67227;SDS011;54139;42.616;23.748;2023-09-19T07:12:08;3.75;;;3.45;;
67227;SDS011;54139;42.616;23.748;2023-09-19T07:14:34;3.53;;;3.20;;
67227;SDS011;54139;42.616;23.748;2023-09-19T07:16:59;5.65;;;3.38;;
67227;SDS011;54139;42.616;23.748;2023-09-19T07:19:25;5.32;;;3.70;;
67227;SDS011;54139;42.616;23.748;2023-09-19T07:21:53;6.47;;;3.30;;
67227;SDS011;54139;42.616;23.748;2023-09-19T07:24:19;4.25;;;3.90;;
67227;SDS011;54139;42.616;23.748;2023-09-19T07:26:45;4.30;;;3.30;;
67227;SDS011;54139;42.616;23.748;2023-09-19T07:29:10;4.30;;;3.20;;
67227;SDS011;54139;42.616;23.748;2023-09-19T07:31:36;4.43;;;3.20;;
67227;SDS011;54139;42.616;23.748;2023-09-19T07:34:01;3.33;;;2.92;;
67227;SDS011;54139;42.616;23.748;2023-09-19T07:36:29;4.77;;;3.67;;
67227;SDS011;54139;42.616;23.748;2023-09-19T07:38:54;3.88;;;3.58;;
67227;SDS011;54139;42.616;23.748;2023-09-19T07:41:20;4.22;;;3.47;;
67227;SDS011;54139;42.616;23.748;2023-09-19T07:43:46;6.53;;;3.90;;
67227;SDS011;54139;42.616;23.748;2023-09-19T07:46:11;4.35;;;3.53;;
67227;SDS011;54139;42.616;23.748;2023-09-19T07:48:37;3.95;;;3.33;;
67227;SDS011;54139;42.616;23.748;2023-09-19T07:51:06;5.45;;;3.42;;
67227;SDS011;54139;42.616;23.748;2023-09-19T07:53:33;3.40;;;3.10;;
67227;SDS011;54139;42.616;23.748;2023-09-19T07:56:06;4.05;;;3.63;;
67227;SDS011;54139;42.616;23.748;2023-09-19T07:58:32;3.53;;;3.30;;
67227;SDS011;54139;42.616;23.748;2023-09-19T08:01:05;6.32;;;4.20;;
67227;SDS011;54139;42.616;23.748;2023-09-19T08:03:31;5.53;;;3.80;;
67227;SDS011;54139;42.616;23.748;2023-09-19T08:05:56;4.28;;;3.50;;
67227;SDS011;54139;42.616;23.748;2023-09-19T08:08:26;3.97;;;3.58;;
67227;SDS011;54139;42.616;23.748;2023-09-19T08:10:53;7.65;;;3.67;;
67227;SDS011;54139;42.616;23.748;2023-09-19T08:13:20;6.40;;;3.13;;
67227;SDS011;54139;42.616;23.748;2023-09-19T08:15:46;3.72;;;3.35;;
67227;SDS011;54139;42.616;23.748;2023-09-19T08:18:13;4.10;;;3.25;;
67227;SDS011;54139;42.616;23.748;2023-09-19T08:20:39;4.82;;;3.72;;
67227;SDS011;54139;42.616;23.748;2023-09-19T08:23:07;5.45;;;3.30;;
67227;SDS011;54139;42.616;23.748;2023-09-19T08:25:33;3.95;;;3.53;;
67227;SDS011;54139;42.616;23.748;2023-09-19T08:27:59;4.22;;;3.78;;
67227;SDS011;54139;42.616;23.748;2023-09-19T08:30:26;3.72;;;3.33;;
67227;SDS011;54139;42.616;23.748;2023-09-19T08:32:58;3.70;;;3.20;;
67227;SDS011;54139;42.616;23.748;2023-09-19T08:35:24;3.72;;;3.42;;
67227;SDS011;54139;42.616;23.748;2023-09-19T08:37:50;4.00;;;3.40;;
67227;SDS011;54139;42.616;23.748;2023-09-19T08:40:16;3.97;;;3.58;;
67227;SDS011;54139;42.616;23.748;2023-09-19T08:42:52;4.00;;;3.70;;
67227;SDS011;54139;42.616;23.748;2023-09-19T08:45:19;4.15;;;3.75;;
67227;SDS011;54139;42.616;23.748;2023-09-19T08:47:50;4.18;;;3.78;;
67227;SDS011;54139;42.616;23.748;2023-09-19T08:50:28;3.85;;;3.55;;
67227;SDS011;54139;42.616;23.748;2023-09-19T08:55:28;4.40;;;3.60;;
67227;SDS011;54139;42.616;23.748;2023-09-19T08:58:03;4.60;;;4.00;;
67227;SDS011;54139;42.616;23.748;2023-09-19T09:00:29;4.25;;;3.67;;
67227;SDS011;54139;42.616;23.748;2023-09-19T09:02:56;6.50;;;3.90;;
67227;SDS011;54139;42.616;23.748;2023-09-19T09:05:22;4.53;;;3.72;;
67227;SDS011;54139;42.616;23.748;2023-09-19T09:07:49;5.95;;;3.97;;
67227;SDS011;54139;42.616;23.748;2023-09-19T09:10:21;4.22;;;3.72;;
67227;SDS011;54139;42.616;23.748;2023-09-19T09:12:48;5.07;;;4.43;;
67227;SDS011;54139;42.616;23.748;2023-09-19T09:17:46;4.97;;;4.47;;
67227;SDS011;54139;42.616;23.748;2023-09-19T09:20:13;4.20;;;3.83;;
67227;SDS011;54139;42.616;23.748;2023-09-19T09:22:38;5.07;;;4.30;;
67227;SDS011;54139;42.616;23.748;2023-09-19T09:25:09;8.48;;;3.95;;
67227;SDS011;54139;42.616;23.748;2023-09-19T09:27:34;4.03;;;3.72;;
67227;SDS011;54139;42.616;23.748;2023-09-19T09:30:00;4.30;;;3.90;;
67227;SDS011;54139;42.616;23.748;2023-09-19T09:34:58;4.70;;;3.80;;
67227;SDS011;54139;42.616;23.748;2023-09-19T09:37:25;7.57;;;4.53;;
67227;SDS011;54139;42.616;23.748;2023-09-19T09:42:36;4.90;;;3.50;;
67227;SDS011;54139;42.616;23.748;2023-09-19T09:45:25;4.70;;;3.65;;
67227;SDS011;54139;42.616;23.748;2023-09-19T09:48:15;4.07;;;3.78;;
67227;SDS011;54139;42.616;23.748;2023-09-19T09:50:47;4.60;;;3.75;;
67227;SDS011;54139;42.616;23.748;2023-09-19T09:53:29;4.15;;;3.85;;
67227;SDS011;54139;42.616;23.748;2023-09-19T09:55:57;4.95;;;3.80;;
67227;SDS011;54139;42.616;23.748;2023-09-19T09:58:24;4.93;;;3.92;;
67227;SDS011;54139;42.616;23.748;2023-09-19T10:00:57;5.18;;;3.80;;
67227;SDS011;54139;42.616;23.748;2023-09-19T10:06:15;4.43;;;3.70;;
67227;SDS011;54139;42.616;23.748;2023-09-19T10:11:58;4.32;;;3.95;;
67227;SDS011;54139;42.616;23.748;2023-09-19T10:14:30;4.63;;;3.70;;
67227;SDS011;54139;42.616;23.748;2023-09-19T10:16:58;3.85;;;3.50;;
67227;SDS011;54139;42.616;23.748;2023-09-19T10:24:47;3.78;;;3.47;;
67227;SDS011;54139;42.616;23.748;2023-09-19T10:27:19;3.70;;;3.47;;
67227;SDS011;54139;42.616;23.748;2023-09-19T10:29:48;4.70;;;3.90;;
67227;SDS011;54139;42.616;23.748;2023-09-19T10:32:19;3.50;;;3.30;;
67227;SDS011;54139;42.616;23.748;2023-09-19T10:34:47;6.63;;;4.13;;
67227;SDS011;54139;42.616;23.748;2023-09-19T10:37:13;3.75;;;3.30;;
67227;SDS011;54139;42.616;23.748;2023-09-19T10:39:41;3.70;;;3.42;;
67227;SDS011;54139;42.616;23.748;2023-09-19T10:42:12;4.05;;;3.75;;
67227;SDS011;54139;42.616;23.748;2023-09-19T10:44:42;5.18;;;3.72;;
67227;SDS011;54139;42.616;23.748;2023-09-19T10:47:09;4.75;;;3.83;;
67227;SDS011;54139;42.616;23.748;2023-09-19T10:49:34;4.30;;;3.50;;
67227;SDS011;54139;42.616;23.748;2023-09-19T10:52:00;4.20;;;3.58;;
67227;SDS011;54139;42.616;23.748;2023-09-19T10:54:27;3.88;;;3.58;;
67227;SDS011;54139;42.616;23.748;2023-09-19T10:56:57;4.38;;;3.55;;
67227;SDS011;54139;42.616;23.748;2023-09-19T10:59:24;3.83;;;3.50;;
67227;SDS011;54139;42.616;23.748;2023-09-19T11:01:51;7.40;;;3.85;;
67227;SDS011;54139;42.616;23.748;2023-09-19T11:04:27;3.70;;;3.40;;
67227;SDS011;54139;42.616;23.748;2023-09-19T11:07:07;4.65;;;3.95;;
67227;SDS011;54139;42.616;23.748;2023-09-19T11:12:57;4.55;;;4.15;;
67227;SDS011;54139;42.616;23.748;2023-09-19T11:15:06;4.95;;;3.80;;
67227;SDS011;54139;42.616;23.748;2023-09-19T11:17:40;4.40;;;4.00;;
67227;SDS011;54139;42.616;23.748;2023-09-19T11:25:42;6.22;;;3.78;;
67227;SDS011;54139;42.616;23.748;2023-09-19T11:28:33;4.13;;;3.85;;
67227;SDS011;54139;42.616;23.748;2023-09-19T11:37:00;4.85;;;4.45;;
67227;SDS011;54139;42.616;23.748;2023-09-19T11:39:29;4.82;;;4.28;;
67227;SDS011;54139;42.616;23.748;2023-09-19T11:41:55;4.25;;;3.95;;
67227;SDS011;54139;42.616;23.748;2023-09-19T11:46:52;4.25;;;3.95;;
67227;SDS011;54139;42.616;23.748;2023-09-19T11:49:19;5.32;;;4.10;;
67227;SDS011;54139;42.616;23.748;2023-09-19T11:51:50;4.60;;;4.00;;
67227;SDS011;54139;42.616;23.748;2023-09-19T11:54:19;5.32;;;3.92;;
67227;SDS011;54139;42.616;23.748;2023-09-19T11:56:50;5.63;;;4.40;;
67227;SDS011;54139;42.616;23.748;2023-09-19T11:59:22;4.55;;;4.15;;
67227;SDS011;54139;42.616;23.748;2023-09-19T12:01:53;4.38;;;4.07;;
67227;SDS011;54139;42.616;23.748;2023-09-19T12:07:00;5.10;;;4.70;;
67227;SDS011;54139;42.616;23.748;2023-09-19T12:09:26;5.03;;;4.00;;
67227;SDS011;54139;42.616;23.748;2023-09-19T12:11:52;4.43;;;3.85;;
67227;SDS011;54139;42.616;23.748;2023-09-19T12:14:25;4.68;;;4.30;;
67227;SDS011;54139;42.616;23.748;2023-09-19T12:16:53;4.65;;;4.25;;
67227;SDS011;54139;42.616;23.748;2023-09-19T12:19:20;4.68;;;4.18;;
67227;SDS011;54139;42.616;23.748;2023-09-19T12:22:03;5.20;;;4.22;;
67227;SDS011;54139;42.616;23.748;2023-09-19T12:24:32;5.00;;;4.68;;
67227;SDS011;54139;42.616;23.748;2023-09-19T12:27:03;5.50;;;4.05;;
67227;SDS011;54139;42.616;23.748;2023-09-19T12:29:30;4.40;;;4.00;;
67227;SDS011;54139;42.616;23.748;2023-09-19T12:31:57;4.68;;;4.13;;
67227;SDS011;54139;42.616;23.748;2023-09-19T12:34:27;4.93;;;4.53;;
67227;SDS011;54139;42.616;23.748;2023-09-19T12:39:44;5.10;;;4.70;;
67227;SDS011;54139;42.616;23.748;2023-09-19T12:42:21;5.82;;;4.03;;
67227;SDS011;54139;42.616;23.748;2023-09-19T12:44:48;4.70;;;4.00;;
67227;SDS011;54139;42.616;23.748;2023-09-19T12:47:20;5.72;;;4.15;;
67227;SDS011;54139;42.616;23.748;2023-09-19T12:52:38;5.45;;;4.35;;
67227;SDS011;54139;42.616;23.748;2023-09-19T12:55:05;4.10;;;3.80;;
67227;SDS011;54139;42.616;23.748;2023-09-19T12:57:32;4.45;;;4.05;;
67227;SDS011;54139;42.616;23.748;2023-09-19T13:00:03;4.60;;;4.20;;
67227;SDS011;54139;42.616;23.748;2023-09-19T13:02:35;5.00;;;4.40;;
67227;SDS011;54139;42.616;23.748;2023-09-19T13:05:01;4.18;;;3.78;;
67227;SDS011;54139;42.616;23.748;2023-09-19T13:07:44;4.80;;;4.10;;
67227;SDS011;54139;42.616;23.748;2023-09-19T13:10:14;4.15;;;3.83;;
67227;SDS011;54139;42.616;23.748;2023-09-19T13:12:41;4.75;;;4.22;;
67227;SDS011;54139;42.616;23.748;2023-09-19T13:15:12;4.07;;;3.78;;
67227;SDS011;54139;42.616;23.748;2023-09-19T13:17:48;4.90;;;4.47;;
67227;SDS011;54139;42.616;23.748;2023-09-19T13:20:21;6.72;;;3.90;;
67227;SDS011;54139;42.616;23.748;2023-09-19T13:22:54;4.90;;;3.97;;
67227;SDS011;54139;42.616;23.748;2023-09-19T13:25:23;4.28;;;3.88;;
67227;SDS011;54139;42.616;23.748;2023-09-19T13:27:50;4.97;;;4.47;;
67227;SDS011;54139;42.616;23.748;2023-09-19T13:30:26;4.22;;;3.92;;
67227;SDS011;54139;42.616;23.748;2023-09-19T13:32:52;6.72;;;4.07;;
67227;SDS011;54139;42.616;23.748;2023-09-19T13:35:18;4.22;;;3.85;;
67227;SDS011;54139;42.616;23.748;2023-09-19T13:37:44;4.53;;;4.03;;
67227;SDS011;54139;42.616;23.748;2023-09-19T13:40:14;5.10;;;4.70;;
67227;SDS011;54139;42.616;23.748;2023-09-19T13:42:40;4.35;;;4.03;;
67227;SDS011;54139;42.616;23.748;2023-09-19T13:45:06;3.88;;;3.63;;
67227;SDS011;54139;42.616;23.748;2023-09-19T13:47:32;4.85;;;4.35;;
67227;SDS011;54139;42.616;23.748;2023-09-19T13:49:59;5.97;;;4.13;;
67227;SDS011;54139;42.616;23.748;2023-09-19T13:52:25;4.72;;;4.15;;
67227;SDS011;54139;42.616;23.748;2023-09-19T13:54:53;7.22;;;4.60;;
67227;SDS011;54139;42.616;23.748;2023-09-19T13:57:21;8.20;;;4.35;;
67227;SDS011;54139;42.616;23.748;2023-09-19T13:59:47;4.90;;;4.50;;
67227;SDS011;54139;42.616;23.748;2023-09-19T14:02:12;4.72;;;4.00;;
67227;SDS011;54139;42.616;23.748;2023-09-19T14:04:39;4.53;;;4.22;;
67227;SDS011;54139;42.616;23.748;2023-09-19T14:07:04;4.35;;;4.05;;
67227;SDS011;54139;42.616;23.748;2023-09-19T14:09:30;5.43;;;4.13;;
67227;SDS011;54139;42.616;23.748;2023-09-19T14:11:55;4.95;;;4.57;;
67227;SDS011;54139;42.616;23.748;2023-09-19T14:14:21;5.90;;;4.78;;
67227;SDS011;54139;42.616;23.748;2023-09-19T14:16:49;5.18;;;4.20;;
67227;SDS011;54139;42.616;23.748;2023-09-19T14:19:15;4.30;;;3.90;;
67227;SDS011;54139;42.616;23.748;2023-09-19T14:21:41;4.13;;;3.72;;
67227;SDS011;54139;42.616;23.748;2023-09-19T14:24:07;6.22;;;4.57;;
67227;SDS011;54139;42.616;23.748;2023-09-19T14:26:36;4.82;;;4.32;;
67227;SDS011;54139;42.616;23.748;2023-09-19T14:29:03;5.25;;;4.53;;
67227;SDS011;54139;42.616;23.748;2023-09-19T14:31:29;6.70;;;4.28;;
67227;SDS011;54139;42.616;23.748;2023-09-19T14:33:55;5.88;;;4.70;;
67227;SDS011;54139;42.616;23.748;2023-09-19T14:36:21;5.75;;;4.55;;
67227;SDS011;54139;42.616;23.748;2023-09-19T14:38:47;7.13;;;4.40;;
67227;SDS011;54139;42.616;23.748;2023-09-19T14:41:13;4.90;;;4.40;;
67227;SDS011;54139;42.616;23.748;2023-09-19T14:43:38;7.75;;;4.50;;
67227;SDS011;54139;42.616;23.748;2023-09-19T14:46:06;4.68;;;4.25;;
67227;SDS011;54139;42.616;23.748;2023-09-19T14:48:35;4.80;;;4.40;;
67227;SDS011;54139;42.616;23.748;2023-09-19T14:51:05;5.10;;;3.95;;
67227;SDS011;54139;42.616;23.748;2023-09-19T14:53:33;5.70;;;4.47;;
67227;SDS011;54139;42.616;23.748;2023-09-19T14:56:03;4.65;;;4.13;;
67227;SDS011;54139;42.616;23.748;2023-09-19T14:58:29;5.63;;;5.05;;
67227;SDS011;54139;42.616;23.748;2023-09-19T15:01:17;8.05;;;5.32;;
67227;SDS011;54139;42.616;23.748;2023-09-19T15:03:43;5.90;;;4.05;;
67227;SDS011;54139;42.616;23.748;2023-09-19T15:06:09;5.78;;;4.47;;
67227;SDS011;54139;42.616;23.748;2023-09-19T15:08:37;6.85;;;4.70;;
67227;SDS011;54139;42.616;23.748;2023-09-19T15:11:09;5.53;;;4.32;;
67227;SDS011;54139;42.616;23.748;2023-09-19T15:13:36;5.15;;;4.18;;
67227;SDS011;54139;42.616;23.748;2023-09-19T15:16:02;6.22;;;5.30;;
67227;SDS011;54139;42.616;23.748;2023-09-19T15:18:28;5.97;;;5.43;;
67227;SDS011;54139;42.616;23.748;2023-09-19T15:21:01;6.32;;;5.72;;
67227;SDS011;54139;42.616;23.748;2023-09-19T15:23:27;7.47;;;6.15;;
67227;SDS011;54139;42.616;23.748;2023-09-19T15:25:54;6.70;;;5.93;;
67227;SDS011;54139;42.616;23.748;2023-09-19T15:28:21;7.53;;;6.88;;
67227;SDS011;54139;42.616;23.748;2023-09-19T15:30:48;13.55;;;7.05;;
67227;SDS011;54139;42.616;23.748;2023-09-19T15:33:14;8.63;;;6.05;;
67227;SDS011;54139;42.616;23.748;2023-09-19T15:35:39;7.75;;;6.40;;
67227;SDS011;54139;42.616;23.748;2023-09-19T15:38:05;5.40;;;4.93;;
67227;SDS011;54139;42.616;23.748;2023-09-19T15:40:30;5.00;;;4.57;;
67227;SDS011;54139;42.616;23.748;2023-09-19T15:42:55;5.43;;;4.45;;
67227;SDS011;54139;42.616;23.748;2023-09-19T15:45:21;5.50;;;4.60;;
67227;SDS011;54139;42.616;23.748;2023-09-19T15:47:48;9.80;;;6.28;;
67227;SDS011;54139;42.616;23.748;2023-09-19T15:50:13;9.70;;;6.63;;
67227;SDS011;54139;42.616;23.748;2023-09-19T15:52:40;10.65;;;8.20;;
67227;SDS011;54139;42.616;23.748;2023-09-19T15:55:05;7.03;;;5.82;;
67227;SDS011;54139;42.616;23.748;2023-09-19T15:57:32;6.57;;;5.40;;
67227;SDS011;54139;42.616;23.748;2023-09-19T15:59:59;5.30;;;4.82;;
67227;SDS011;54139;42.616;23.748;2023-09-19T16:02:24;5.35;;;4.85;;